Time,TemperatureF,DewpointF,PressureIn,WindDirection,WindDirectionDegrees,WindSpeedMPH,WindSpeedGustMPH,Humidity,HourlyPrecipIn,Conditions,Clouds,dailyrainin,SolarRadiationWatts/m^2,SoftwareType,DateUTC
2013-09-30 00:12:00,50.0,21.0,-100.00,WSW,245,3.0,6.0,31,0.00,,,0.00,1.000000,,2013-09-30 06:12:00,
2013-09-30 00:21:00,50.0,21.0,-100.00,WSW,245,3.0,6.0,31,0.00,,,0.00,1.000000,,2013-09-30 06:21:00,
2013-09-30 00:32:00,50.0,21.0,-100.00,WSW,245,3.0,6.0,31,0.00,,,0.00,1.000000,,2013-09-30 06:32:00,
2013-09-30 01:12:00,49.0,20.0,-100.00,West,259,4.0,8.0,32,0.00,,,-99.99,1.000000,,2013-09-30 07:12:00,
2013-09-30 01:21:00,49.0,20.0,-100.00,West,259,4.0,8.0,32,0.00,,,-99.99,1.000000,,2013-09-30 07:21:00,
2013-09-30 01:32:00,49.0,20.0,-100.00,West,259,4.0,8.0,32,0.00,,,-99.99,1.000000,,2013-09-30 07:32:00,
2013-09-30 02:12:00,44.0,20.0,-100.00,SE,145,0.0,7.0,38,0.00,,,0.00,1.000000,,2013-09-30 08:12:00,
2013-09-30 02:22:00,44.0,20.0,-100.00,SE,145,0.0,7.0,38,0.00,,,0.00,1.000000,,2013-09-30 08:22:00,
2013-09-30 02:32:00,44.0,20.0,-100.00,SE,145,0.0,7.0,38,0.00,,,0.00,1.000000,,2013-09-30 08:32:00,
2013-09-30 03:11:00,42.0,19.0,-100.00,WNW,290,0.0,3.0,39,0.00,,,0.00,1.000000,,2013-09-30 09:11:00,
2013-09-30 03:22:00,42.0,19.0,-100.00,WNW,290,0.0,3.0,39,0.00,,,0.00,1.000000,,2013-09-30 09:22:00,
2013-09-30 03:33:00,42.0,19.0,-100.00,WNW,290,0.0,3.0,39,0.00,,,0.00,1.000000,,2013-09-30 09:33:00,
2013-09-30 04:13:00,41.0,17.0,-100.00,West,259,0.0,2.0,38,0.00,,,0.00,1.000000,,2013-09-30 10:13:00,
2013-09-30 04:22:00,41.0,17.0,-100.00,West,259,0.0,2.0,38,0.00,,,0.00,1.000000,,2013-09-30 10:22:00,
2013-09-30 04:32:00,41.0,17.0,-100.00,West,259,0.0,2.0,38,0.00,,,0.00,1.000000,,2013-09-30 10:32:00,
2013-09-30 05:12:00,40.0,16.0,-100.00,ESE,109,0.0,2.0,38,0.00,,,0.00,1.000000,,2013-09-30 11:12:00,
2013-09-30 05:22:00,40.0,16.0,-100.00,ESE,109,0.0,2.0,38,0.00,,,0.00,1.000000,,2013-09-30 11:22:00,
2013-09-30 05:32:00,40.0,16.0,-100.00,ESE,109,0.0,2.0,38,0.00,,,0.00,1.000000,,2013-09-30 11:32:00,
2013-09-30 06:12:00,40.0,16.0,-100.00,South,188,0.0,2.0,38,0.00,,,0.00,1.000000,,2013-09-30 12:12:00,
2013-09-30 06:22:00,40.0,16.0,-100.00,South,188,0.0,2.0,38,0.00,,,0.00,1.000000,,2013-09-30 12:22:00,
2013-09-30 06:31:00,40.0,16.0,-100.00,South,188,0.0,2.0,38,0.00,,,0.00,1.000000,,2013-09-30 12:31:00,
2013-09-30 07:11:00,40.0,16.0,-100.00,SSW,207,1.0,2.0,37,0.00,,,0.00,1.000000,,2013-09-30 13:11:00,
2013-09-30 07:22:00,40.0,16.0,-100.00,SSW,207,1.0,2.0,37,0.00,,,0.00,1.000000,,2013-09-30 13:22:00,
2013-09-30 07:32:00,40.0,16.0,-100.00,SSW,207,1.0,2.0,37,0.00,,,0.00,1.000000,,2013-09-30 13:32:00,
2013-09-30 08:11:00,40.0,15.0,-100.00,WSW,237,2.0,3.0,36,0.00,,,0.00,3.000000,,2013-09-30 14:11:00,
2013-09-30 08:22:00,40.0,15.0,-100.00,WSW,237,2.0,3.0,36,0.00,,,0.00,3.000000,,2013-09-30 14:22:00,
2013-09-30 08:32:00,40.0,15.0,-100.00,WSW,237,2.0,3.0,36,0.00,,,0.00,3.000000,,2013-09-30 14:32:00,
2013-09-30 09:11:00,55.0,20.0,-100.00,WSW,243,3.0,5.0,25,0.00,,,0.00,73.000000,,2013-09-30 15:11:00,
2013-09-30 09:22:00,55.0,20.0,-100.00,WSW,243,3.0,5.0,25,0.00,,,0.00,73.000000,,2013-09-30 15:22:00,
2013-09-30 09:34:00,55.0,20.0,-100.00,WSW,243,3.0,5.0,25,0.00,,,0.00,73.000000,,2013-09-30 15:34:00,
2013-09-30 10:14:00,60.0,21.0,-100.00,WSW,240,5.0,8.0,22,0.00,,,0.00,277.000000,,2013-09-30 16:14:00,
2013-09-30 10:24:00,60.0,21.0,-100.00,WSW,240,5.0,8.0,22,0.00,,,0.00,277.000000,,2013-09-30 16:24:00,
2013-09-30 10:34:00,60.0,21.0,-100.00,WSW,240,5.0,8.0,22,0.00,,,0.00,277.000000,,2013-09-30 16:34:00,
2013-09-30 11:13:00,63.0,21.0,-100.00,WSW,237,7.0,14.0,20,0.00,,,0.00,486.000000,,2013-09-30 17:13:00,
2013-09-30 11:22:00,63.0,21.0,-100.00,WSW,237,7.0,14.0,20,0.00,,,0.00,486.000000,,2013-09-30 17:22:00,
2013-09-30 11:33:00,63.0,21.0,-100.00,WSW,237,7.0,14.0,20,0.00,,,0.00,486.000000,,2013-09-30 17:33:00,
2013-09-30 12:12:00,65.0,20.0,-100.00,WSW,243,7.0,13.0,18,0.00,,,0.00,668.000000,,2013-09-30 18:12:00,
2013-09-30 12:22:00,65.0,20.0,-100.00,WSW,243,7.0,13.0,18,0.00,,,0.00,668.000000,,2013-09-30 18:22:00,
2013-09-30 12:32:00,65.0,20.0,-100.00,WSW,243,7.0,13.0,18,0.00,,,0.00,668.000000,,2013-09-30 18:32:00,
2013-09-30 13:12:00,68.0,20.0,-100.00,WSW,258,7.0,16.0,16,0.00,,,0.00,802.000000,,2013-09-30 19:12:00,
2013-09-30 13:22:00,68.0,20.0,-100.00,WSW,258,7.0,16.0,16,0.00,,,0.00,802.000000,,2013-09-30 19:22:00,
2013-09-30 13:32:00,68.0,20.0,-100.00,WSW,258,7.0,16.0,16,0.00,,,0.00,802.000000,,2013-09-30 19:32:00,
2013-09-30 14:12:00,70.0,20.0,-100.00,WSW,244,6.0,15.0,15,0.00,,,0.00,870.000000,,2013-09-30 20:12:00,
2013-09-30 14:23:00,70.0,20.0,-100.00,WSW,244,6.0,15.0,15,0.00,,,0.00,870.000000,,2013-09-30 20:23:00,
2013-09-30 14:33:00,70.0,20.0,-100.00,WSW,244,6.0,15.0,15,0.00,,,0.00,870.000000,,2013-09-30 20:33:00,
2013-09-30 15:11:00,72.0,22.0,-100.00,West,268,6.0,12.0,15,0.00,,,0.00,869.000000,,2013-09-30 21:11:00,
2013-09-30 15:22:00,72.0,22.0,-100.00,West,268,6.0,12.0,15,0.00,,,0.00,869.000000,,2013-09-30 21:22:00,
2013-09-30 15:34:00,72.0,22.0,-100.00,West,268,6.0,12.0,15,0.00,,,0.00,869.000000,,2013-09-30 21:34:00,
2013-09-30 16:13:00,74.0,20.0,-100.00,WNW,295,6.0,14.0,13,0.00,,,0.00,799.000000,,2013-09-30 22:13:00,
2013-09-30 16:23:00,74.0,20.0,-100.00,WNW,295,6.0,14.0,13,0.00,,,0.00,799.000000,,2013-09-30 22:23:00,
2013-09-30 16:34:00,74.0,20.0,-100.00,WNW,295,6.0,14.0,13,0.00,,,0.00,799.000000,,2013-09-30 22:34:00,
2013-09-30 17:12:00,73.0,17.0,-100.00,West,268,7.0,14.0,12,0.00,,,-99.99,669.000000,,2013-09-30 23:12:00,
2013-09-30 17:23:00,73.0,17.0,-100.00,West,268,7.0,14.0,12,0.00,,,-99.99,669.000000,,2013-09-30 23:23:00,
2013-09-30 17:34:00,73.0,17.0,-100.00,West,268,7.0,14.0,12,0.00,,,-99.99,669.000000,,2013-09-30 23:34:00,
2013-09-30 18:12:00,72.0,17.0,-100.00,West,274,6.0,15.0,12,0.00,,,0.00,488.000000,,2013-10-01 00:12:00,
2013-09-30 18:22:00,72.0,17.0,-100.00,West,274,6.0,15.0,12,0.00,,,0.00,488.000000,,2013-10-01 00:22:00,
2013-09-30 18:32:00,72.0,17.0,-100.00,West,274,6.0,15.0,12,0.00,,,0.00,488.000000,,2013-10-01 00:32:00,
2013-09-30 19:12:00,69.0,19.0,-100.00,West,270,6.0,11.0,15,0.00,,,0.00,266.000000,,2013-10-01 01:12:00,
2013-09-30 19:21:00,69.0,19.0,-100.00,West,270,6.0,11.0,15,0.00,,,0.00,266.000000,,2013-10-01 01:21:00,
2013-09-30 19:32:00,69.0,19.0,-100.00,West,270,6.0,11.0,15,0.00,,,0.00,266.000000,,2013-10-01 01:32:00,
2013-09-30 20:12:00,56.0,19.0,-100.00,SSE,160,0.0,9.0,23,0.00,,,0.00,20.000000,,2013-10-01 02:12:00,
2013-09-30 20:22:00,56.0,19.0,-100.00,SSE,160,0.0,9.0,23,0.00,,,0.00,20.000000,,2013-10-01 02:22:00,
2013-09-30 20:33:00,56.0,19.0,-100.00,SSE,160,0.0,9.0,23,0.00,,,0.00,20.000000,,2013-10-01 02:33:00,
2013-09-30 21:12:00,53.0,18.0,-100.00,SW,225,3.0,5.0,25,0.00,,,0.00,1.000000,,2013-10-01 03:12:00,
2013-09-30 21:22:00,53.0,18.0,-100.00,SW,225,3.0,5.0,25,0.00,,,0.00,1.000000,,2013-10-01 03:22:00,
2013-09-30 21:34:00,53.0,18.0,-100.00,SW,225,3.0,5.0,25,0.00,,,0.00,1.000000,,2013-10-01 03:34:00,
2013-09-30 22:14:00,52.0,17.0,-100.00,SW,230,3.0,5.0,25,0.00,,,0.00,1.000000,,2013-10-01 04:14:00,
2013-09-30 22:24:00,52.0,17.0,-100.00,SW,230,3.0,5.0,25,0.00,,,0.00,1.000000,,2013-10-01 04:24:00,